sensor_id;sensor_type;location;lat;lon;timestamp;pressure;altitude;pressure_sealevel;temperature;humidity
5679;BME280;2862;52.560;13.566;2023-04-03T00:08:56;102155.13;;;0.56;85.11
5679;BME280;2862;52.560;13.566;2023-04-03T00:19:00;102152.56;;;0.53;84.96
5679;BME280;2862;52.560;13.566;2023-04-03T00:29:03;102154.56;;;0.40;84.98
5679;BME280;2862;52.560;13.566;2023-04-03T00:39:08;102159.75;;;0.43;84.16
5679;BME280;2862;52.560;13.566;2023-04-03T00:49:12;102164.94;;;0.48;83.55
5679;BME280;2862;52.560;13.566;2023-04-03T00:59:20;102158.75;;;0.49;83.25
5679;BME280;2862;52.560;13.566;2023-04-03T01:09:26;102159.50;;;0.56;82.39
5679;BME280;2862;52.560;13.566;2023-04-03T01:19:33;102162.22;;;0.51;82.13
5679;BME280;2862;52.560;13.566;2023-04-03T01:29:41;102164.16;;;0.43;82.52
5679;BME280;2862;52.560;13.566;2023-04-03T01:39:46;102164.84;;;0.52;82.70
5679;BME280;2862;52.560;13.566;2023-04-03T01:49:50;102177.16;;;0.50;82.34
5679;BME280;2862;52.560;13.566;2023-04-03T01:59:55;102170.13;;;0.51;82.40
5679;BME280;2862;52.560;13.566;2023-04-03T02:09:58;102184.25;;;0.47;82.65
5679;BME280;2862;52.560;13.566;2023-04-03T02:20:04;102182.41;;;0.52;82.23
5679;BME280;2862;52.560;13.566;2023-04-03T02:30:08;102198.19;;;0.50;82.61
5679;BME280;2862;52.560;13.566;2023-04-03T02:40:13;102202.06;;;0.31;83.40
5679;BME280;2862;52.560;13.566;2023-04-03T02:50:17;102208.00;;;0.42;83.12
5679;BME280;2862;52.560;13.566;2023-04-03T03:00:22;102220.69;;;0.19;84.95
5679;BME280;2862;52.560;13.566;2023-04-03T03:10:25;102227.06;;;0.03;85.81
5679;BME280;2862;52.560;13.566;2023-04-03T03:20:30;102238.44;;;0.03;86.76
5679;BME280;2862;52.560;13.566;2023-04-03T03:30:33;102236.78;;;-0.03;86.54
5679;BME280;2862;52.560;13.566;2023-04-03T03:40:38;102240.53;;;-0.19;87.09
5679;BME280;2862;52.560;13.566;2023-04-03T03:50:42;102241.47;;;-0.24;87.37
5679;BME280;2862;52.560;13.566;2023-04-03T04:00:47;102241.59;;;-0.32;87.90
5679;BME280;2862;52.560;13.566;2023-04-03T04:10:50;102227.59;;;-0.33;87.89
5679;BME280;2862;52.560;13.566;2023-04-03T04:20:54;102246.00;;;-0.34;87.98
5679;BME280;2862;52.560;13.566;2023-04-03T04:30:58;102238.13;;;-0.34;88.03
5679;BME280;2862;52.560;13.566;2023-04-03T04:41:03;102241.38;;;-0.17;87.52
5679;BME280;2862;52.560;13.566;2023-04-03T04:51:06;102253.34;;;0.03;86.64
5679;BME280;2862;52.560;13.566;2023-04-03T05:01:13;102247.88;;;3.34;72.60
5679;BME280;2862;52.560;13.566;2023-04-03T05:11:25;102245.41;;;8.11;52.60
5679;BME280;2862;52.560;13.566;2023-04-03T05:21:30;102246.53;;;11.29;42.91
5679;BME280;2862;52.560;13.566;2023-04-03T05:31:39;102244.59;;;13.34;37.83
5679;BME280;2862;52.560;13.566;2023-04-03T05:41:45;102260.28;;;14.26;35.06
5679;BME280;2862;52.560;13.566;2023-04-03T05:51:49;102261.03;;;16.12;31.39
5679;BME280;2862;52.560;13.566;2023-04-03T06:01:59;102273.72;;;16.33;31.21
5679;BME280;2862;52.560;13.566;2023-04-03T06:12:03;102279.34;;;17.05;28.52
5679;BME280;2862;52.560;13.566;2023-04-03T06:22:07;102292.81;;;17.26;28.38
5679;BME280;2862;52.560;13.566;2023-04-03T06:32:10;102282.06;;;18.47;26.77
5679;BME280;2862;52.560;13.566;2023-04-03T06:42:15;102282.09;;;17.97;26.82
5679;BME280;2862;52.560;13.566;2023-04-03T06:52:26;102300.81;;;15.65;28.57
5679;BME280;2862;52.560;13.566;2023-04-03T07:02:31;102316.19;;;16.31;27.79
5679;BME280;2862;52.560;13.566;2023-04-03T07:12:34;102343.59;;;13.66;31.57
5679;BME280;2862;52.560;13.566;2023-04-03T07:22:38;102365.97;;;10.87;38.27
5679;BME280;2862;52.560;13.566;2023-04-03T07:32:41;102356.19;;;10.56;37.67
5679;BME280;2862;52.560;13.566;2023-04-03T07:42:45;102375.22;;;7.27;43.23
5679;BME280;2862;52.560;13.566;2023-04-03T07:52:48;102388.97;;;5.32;47.19
5679;BME280;2862;52.560;13.566;2023-04-03T08:02:53;102380.34;;;4.74;50.66
5679;BME280;2862;52.560;13.566;2023-04-03T08:12:56;102385.75;;;5.49;49.88
5679;BME280;2862;52.560;13.566;2023-04-03T08:23:00;102396.03;;;4.52;49.83
5679;BME280;2862;52.560;13.566;2023-04-03T08:33:03;102409.81;;;3.42;50.38
5679;BME280;2862;52.560;13.566;2023-04-03T08:43:24;102387.69;;;4.07;49.22
5679;BME280;2862;52.560;13.566;2023-04-03T08:53:35;102369.84;;;4.71;48.87
5679;BME280;2862;52.560;13.566;2023-04-03T09:03:43;102353.59;;;5.81;44.70
5679;BME280;2862;52.560;13.566;2023-04-03T09:13:49;102357.94;;;5.84;43.05
5679;BME280;2862;52.560;13.566;2023-04-03T09:23:59;102375.97;;;4.99;44.84
5679;BME280;2862;52.560;13.566;2023-04-03T09:34:06;102372.38;;;5.52;45.60
5679;BME280;2862;52.560;13.566;2023-04-03T09:44:25;102367.81;;;4.79;46.60
5679;BME280;2862;52.560;13.566;2023-04-03T09:54:34;102369.59;;;5.05;47.35
5679;BME280;2862;52.560;13.566;2023-04-03T10:04:41;102360.31;;;4.92;47.32
5679;BME280;2862;52.560;13.566;2023-04-03T10:14:54;102346.56;;;5.32;47.56
5679;BME280;2862;52.560;13.566;2023-04-03T10:25:03;102344.81;;;4.79;47.51
5679;BME280;2862;52.560;13.566;2023-04-03T10:35:16;102335.13;;;5.05;47.66
5679;BME280;2862;52.560;13.566;2023-04-03T10:45:26;102322.16;;;5.22;47.60
5679;BME280;2862;52.560;13.566;2023-04-03T10:55:35;102326.56;;;4.97;48.02
5679;BME280;2862;52.560;13.566;2023-04-03T11:05:44;102321.22;;;4.98;49.45
5679;BME280;2862;52.560;13.566;2023-04-03T11:15:47;102315.28;;;5.17;49.22
5679;BME280;2862;52.560;13.566;2023-04-03T11:25:56;102319.34;;;4.75;52.54
5679;BME280;2862;52.560;13.566;2023-04-03T11:36:13;102295.91;;;5.40;49.99
5679;BME280;2862;52.560;13.566;2023-04-03T11:46:50;102284.75;;;5.30;49.26
5679;BME280;2862;52.560;13.566;2023-04-03T11:56:55;102292.22;;;4.94;49.97
5679;BME280;2862;52.560;13.566;2023-04-03T12:07:16;102286.75;;;5.23;47.15
5679;BME280;2862;52.560;13.566;2023-04-03T12:17:22;102281.56;;;5.45;46.73
5679;BME280;2862;52.560;13.566;2023-04-03T12:27:33;102273.00;;;5.37;45.68
5679;BME280;2862;52.560;13.566;2023-04-03T12:37:51;102281.25;;;5.29;47.18
5679;BME280;2862;52.560;13.566;2023-04-03T12:48:01;102260.38;;;5.44;47.33
5679;BME280;2862;52.560;13.566;2023-04-03T12:58:17;102254.72;;;5.76;47.03
5679;BME280;2862;52.560;13.566;2023-04-03T13:08:24;102248.88;;;5.67;47.96
5679;BME280;2862;52.560;13.566;2023-04-03T13:18:29;102253.94;;;5.26;48.50
5679;BME280;2862;52.560;13.566;2023-04-03T13:28:35;102251.56;;;4.95;49.85
5679;BME280;2862;52.560;13.566;2023-04-03T13:38:39;102251.41;;;4.99;51.15
5679;BME280;2862;52.560;13.566;2023-04-03T13:48:44;102225.66;;;5.26;52.54
5679;BME280;2862;52.560;13.566;2023-04-03T13:58:57;102237.25;;;5.47;51.74
5679;BME280;2862;52.560;13.566;2023-04-03T14:09:02;102227.72;;;5.42;51.73
5679;BME280;2862;52.560;13.566;2023-04-03T14:19:05;102224.97;;;5.68;52.81
5679;BME280;2862;52.560;13.566;2023-04-03T14:29:11;102220.97;;;5.33;52.52
5679;BME280;2862;52.560;13.566;2023-04-03T14:39:17;102215.56;;;5.13;54.11
5679;BME280;2862;52.560;13.566;2023-04-03T14:49:25;102217.69;;;4.78;56.85
5679;BME280;2862;52.560;13.566;2023-04-03T14:59:30;102212.25;;;4.56;57.50
5679;BME280;2862;52.560;13.566;2023-04-03T15:09:36;102219.31;;;4.82;57.99
5679;BME280;2862;52.560;13.566;2023-04-03T15:19:39;102211.53;;;4.77;57.19
5679;BME280;2862;52.560;13.566;2023-04-03T15:29:44;102208.47;;;4.63;57.66
5679;BME280;2862;52.560;13.566;2023-04-03T15:39:47;102211.34;;;4.57;57.23
5679;BME280;2862;52.560;13.566;2023-04-03T15:49:51;102184.16;;;4.77;57.38
5679;BME280;2862;52.560;13.566;2023-04-03T15:59:56;102196.78;;;5.19;55.95
5679;BME280;2862;52.560;13.566;2023-04-03T16:10:00;102189.34;;;5.05;56.35
5679;BME280;2862;52.560;13.566;2023-04-03T16:20:06;102195.88;;;4.95;56.78
5679;BME280;2862;52.560;13.566;2023-04-03T16:30:11;102206.38;;;4.48;59.88
5679;BME280;2862;52.560;13.566;2023-04-03T16:40:14;102206.31;;;4.49;60.57
5679;BME280;2862;52.560;13.566;2023-04-03T16:50:18;102209.13;;;4.45;61.01
5679;BME280;2862;52.560;13.566;2023-04-03T17:00:21;102201.31;;;4.40;60.57
5679;BME280;2862;52.560;13.566;2023-04-03T17:10:26;102201.00;;;4.24;60.12
5679;BME280;2862;52.560;13.566;2023-04-03T17:20:29;102210.75;;;4.22;61.01
5679;BME280;2862;52.560;13.566;2023-04-03T17:30:36;102209.22;;;4.15;62.18
5679;BME280;2862;52.560;13.566;2023-04-03T17:40:39;102215.38;;;4.16;62.76
5679;BME280;2862;52.560;13.566;2023-04-03T17:50:44;102212.47;;;3.97;63.91
5679;BME280;2862;52.560;13.566;2023-04-03T18:00:47;102220.25;;;3.73;64.15
5679;BME280;2862;52.560;13.566;2023-04-03T18:10:51;102219.97;;;3.83;65.93
5679;BME280;2862;52.560;13.566;2023-04-03T18:20:54;102228.94;;;3.79;65.61
5679;BME280;2862;52.560;13.566;2023-04-03T18:30:59;102240.03;;;3.62;66.30
5679;BME280;2862;52.560;13.566;2023-04-03T18:41:03;102246.25;;;3.59;66.38
5679;BME280;2862;52.560;13.566;2023-04-03T18:51:11;102236.72;;;3.54;67.06
5679;BME280;2862;52.560;13.566;2023-04-03T19:01:15;102235.72;;;3.58;67.73
5679;BME280;2862;52.560;13.566;2023-04-03T19:11:19;102229.38;;;3.34;70.37
5679;BME280;2862;52.560;13.566;2023-04-03T19:21:21;102225.38;;;3.19;72.03
5679;BME280;2862;52.560;13.566;2023-04-03T19:31:26;102214.75;;;3.20;73.53
5679;BME280;2862;52.560;13.566;2023-04-03T19:41:30;102211.66;;;3.06;74.49
5679;BME280;2862;52.560;13.566;2023-04-03T19:51:35;102213.97;;;2.87;76.05
5679;BME280;2862;52.560;13.566;2023-04-03T20:01:37;102224.38;;;2.92;75.87
5679;BME280;2862;52.560;13.566;2023-04-03T20:11:43;102237.66;;;2.56;76.26
5679;BME280;2862;52.560;13.566;2023-04-03T20:21:48;102221.66;;;2.62;74.84
5679;BME280;2862;52.560;13.566;2023-04-03T20:31:52;102222.41;;;2.67;74.77
5679;BME280;2862;52.560;13.566;2023-04-03T20:41:59;102228.75;;;2.60;74.97
5679;BME280;2862;52.560;13.566;2023-04-03T20:52:05;102221.31;;;2.40;74.26
5679;BME280;2862;52.560;13.566;2023-04-03T21:02:10;102228.84;;;2.22;73.92
5679;BME280;2862;52.560;13.566;2023-04-03T21:22:56;102218.94;;;1.94;75.57
5679;BME280;2862;52.560;13.566;2023-04-03T21:32:59;102216.97;;;1.67;76.00
5679;BME280;2862;52.560;13.566;2023-04-03T21:43:04;102221.69;;;1.51;75.46
5679;BME280;2862;52.560;13.566;2023-04-03T21:53:07;102219.53;;;1.28;75.81
5679;BME280;2862;52.560;13.566;2023-04-03T22:03:10;102221.41;;;1.23;76.06
5679;BME280;2862;52.560;13.566;2023-04-03T22:13:14;102219.75;;;1.17;76.42
5679;BME280;2862;52.560;13.566;2023-04-03T22:23:18;102216.50;;;1.04;76.89
5679;BME280;2862;52.560;13.566;2023-04-03T22:33:21;102212.47;;;0.85;77.92
5679;BME280;2862;52.560;13.566;2023-04-03T22:43:27;102216.97;;;0.80;78.21
5679;BME280;2862;52.560;13.566;2023-04-03T22:53:30;102207.84;;;0.50;79.64
5679;BME280;2862;52.560;13.566;2023-04-03T23:03:35;102216.72;;;0.44;79.83
5679;BME280;2862;52.560;13.566;2023-04-03T23:13:39;102214.44;;;0.23;81.22
5679;BME280;2862;52.560;13.566;2023-04-03T23:23:45;102221.41;;;0.27;81.04
5679;BME280;2862;52.560;13.566;2023-04-03T23:33:48;102214.38;;;0.29;81.31
5679;BME280;2862;52.560;13.566;2023-04-03T23:43:53;102212.53;;;0.33;80.57
5679;BME280;2862;52.560;13.566;2023-04-03T23:53:56;102204.78;;;0.25;81.34
